Time,TemperatureF,DewpointF,PressureIn,WindDirection,WindDirectionDegrees,WindSpeedMPH,WindSpeedGustMPH,Humidity,HourlyPrecipIn,Conditions,Clouds,dailyrainin,SoftwareType,DateUTC
2013-09-08 00:02:00,-999.0,-99.9,29.88,SW,236,0.0,3.0,-999,-99.99,,,-99.99,,2013-09-08 04:02:00,
2013-09-08 00:14:00,72.0,51.0,29.88,SW,236,0.0,3.0,48,0.00,,,0.00,,2013-09-08 04:14:00,
2013-09-08 00:24:00,72.0,51.0,29.88,SW,236,0.0,3.0,48,0.00,,,0.00,,2013-09-08 04:24:00,
2013-09-08 00:54:00,72.0,52.0,29.87,WSW,241,3.0,8.0,49,0.00,,,0.00,,2013-09-08 04:54:00,
2013-09-08 01:23:00,71.0,52.0,29.87,SW,215,5.0,10.0,51,0.00,,,0.00,,2013-09-08 05:23:00,
2013-09-08 01:52:00,71.0,54.0,29.86,WSW,257,3.0,8.0,54,0.00,,,0.00,,2013-09-08 05:52:00,
2013-09-08 02:13:00,70.0,53.0,29.86,WSW,245,4.0,6.0,55,0.00,,,0.00,,2013-09-08 06:13:00,
2013-09-08 02:22:00,70.0,53.0,29.86,WSW,245,4.0,6.0,55,0.00,,,0.00,,2013-09-08 06:22:00,
2013-09-08 02:53:00,70.0,56.0,29.85,SW,235,3.0,4.0,62,0.00,,,0.00,,2013-09-08 06:53:00,
2013-09-08 03:12:00,69.0,55.0,29.85,WSW,246,1.0,4.0,62,0.00,,,0.00,,2013-09-08 07:12:00,
2013-09-08 03:23:00,69.0,55.0,29.85,WSW,243,4.0,4.0,62,0.00,,,0.00,,2013-09-08 07:23:00,
2013-09-08 03:52:00,69.0,55.0,29.84,WSW,240,3.0,3.0,62,0.00,,,0.00,,2013-09-08 07:52:00,
2013-09-08 04:22:00,69.0,55.0,29.82,SW,226,3.0,5.0,62,0.00,,,0.00,,2013-09-08 08:22:00,
2013-09-08 04:52:00,69.0,55.0,29.82,SW,226,3.0,3.0,62,0.00,,,0.00,,2013-09-08 08:52:00,
2013-09-08 05:22:00,68.0,55.0,29.82,West,262,0.0,3.0,64,0.00,,,0.00,,2013-09-08 09:22:00,
2013-09-08 05:33:00,68.0,55.0,29.82,West,262,0.0,3.0,64,0.00,,,0.00,,2013-09-08 09:33:00,
2013-09-08 05:54:00,68.0,56.0,29.81,WSW,242,2.0,4.0,65,0.00,,,0.00,,2013-09-08 09:54:00,
2013-09-08 06:03:00,68.0,56.0,29.81,WSW,242,2.0,4.0,65,0.00,,,0.00,,2013-09-08 10:03:00,
2013-09-08 06:23:00,68.0,56.0,29.81,WSW,246,0.0,3.0,65,0.00,,,0.00,,2013-09-08 10:23:00,
2013-09-08 06:53:00,68.0,56.0,29.80,WSW,257,3.0,7.0,66,0.00,,,0.00,,2013-09-08 10:53:00,
2013-09-08 07:02:00,68.0,56.0,29.80,WSW,257,3.0,7.0,66,0.00,,,0.00,,2013-09-08 11:02:00,
2013-09-08 07:12:00,68.0,56.0,29.80,WSW,257,3.0,7.0,66,0.00,,,0.00,,2013-09-08 11:12:00,
2013-09-08 07:22:00,67.0,56.0,29.80,WNW,286,4.0,5.0,69,0.00,,,0.00,,2013-09-08 11:22:00,
2013-09-08 07:33:00,67.0,56.0,29.80,WNW,286,4.0,5.0,69,0.00,,,0.00,,2013-09-08 11:33:00,
2013-09-08 07:52:00,68.0,57.0,29.83,West,269,0.0,6.0,67,0.00,,,0.00,,2013-09-08 11:52:00,
2013-09-08 08:12:00,68.0,57.0,29.83,WSW,252,0.0,3.0,68,0.00,,,0.00,,2013-09-08 12:12:00,
2013-09-08 08:22:00,67.0,56.0,29.82,WSW,253,1.0,3.0,69,0.00,,,0.00,,2013-09-08 12:22:00,
2013-09-08 08:32:00,67.0,56.0,29.82,WSW,253,1.0,3.0,69,0.00,,,0.00,,2013-09-08 12:32:00,
2013-09-08 08:52:00,68.0,57.0,29.81,SSW,203,1.0,3.0,68,0.00,,,0.00,,2013-09-08 12:52:00,
2013-09-08 09:22:00,70.0,57.0,29.81,SW,235,6.0,6.0,64,0.00,,,0.00,,2013-09-08 13:22:00,
2013-09-08 09:52:00,73.0,59.0,29.81,NW,315,3.0,6.0,61,0.00,,,0.00,,2013-09-08 13:52:00,
2013-09-08 10:02:00,73.0,59.0,29.81,NW,315,3.0,6.0,61,0.00,,,0.00,,2013-09-08 14:02:00,
2013-09-08 10:22:00,75.0,59.0,29.82,NW,313,3.0,7.0,58,0.00,,,0.00,,2013-09-08 14:22:00,
2013-09-08 10:52:00,78.0,61.0,29.81,NW,321,9.0,9.0,55,0.00,,,0.00,,2013-09-08 14:52:00,
2013-09-08 11:23:00,78.0,61.0,29.81,NW,320,7.0,10.0,56,0.00,,,0.00,,2013-09-08 15:23:00,
2013-09-08 11:55:00,79.0,61.0,29.81,North,351,2.0,11.0,55,0.00,,,0.00,,2013-09-08 15:55:00,
2013-09-08 12:24:00,81.0,62.0,29.80,NNW,344,9.0,15.0,53,0.00,,,0.00,,2013-09-08 16:24:00,
2013-09-08 12:54:00,81.0,62.0,29.81,NW,305,11.0,14.0,52,0.00,,,0.00,,2013-09-08 16:54:00,
2013-09-08 13:24:00,82.0,61.0,29.81,NW,306,8.0,14.0,50,0.00,,,0.00,,2013-09-08 17:24:00,
2013-09-08 13:53:00,82.0,61.0,29.81,NW,326,10.0,12.0,49,0.00,,,0.00,,2013-09-08 17:53:00,
2013-09-08 14:02:00,82.0,61.0,29.81,NW,326,10.0,12.0,49,0.00,,,0.00,,2013-09-08 18:02:00,
2013-09-08 14:22:00,82.0,59.0,29.81,WNW,295,12.0,18.0,46,0.00,,,0.00,,2013-09-08 18:22:00,
2013-09-08 14:52:00,83.0,59.0,29.82,NNW,347,3.0,13.0,44,0.00,,,0.00,,2013-09-08 18:52:00,
2013-09-08 15:12:00,82.0,57.0,29.82,North,349,6.0,17.0,43,0.00,,,0.00,,2013-09-08 19:12:00,
2013-09-08 15:22:00,81.0,56.0,29.83,WNW,293,4.0,11.0,43,0.00,,,0.00,,2013-09-08 19:22:00,
2013-09-08 15:52:00,83.0,55.0,29.83,NNW,335,10.0,16.0,39,0.00,,,0.00,,2013-09-08 19:52:00,
2013-09-08 16:03:00,83.0,55.0,29.83,NNW,335,10.0,16.0,39,0.00,,,0.00,,2013-09-08 20:03:00,
2013-09-08 16:22:00,81.0,54.0,29.84,NNW,340,8.0,16.0,40,0.00,,,0.00,,2013-09-08 20:22:00,
2013-09-08 16:32:00,81.0,54.0,29.84,NNW,340,8.0,16.0,40,0.00,,,0.00,,2013-09-08 20:32:00,
2013-09-08 16:53:00,80.0,53.0,29.84,WNW,297,3.0,13.0,39,0.00,,,0.00,,2013-09-08 20:53:00,
2013-09-08 17:22:00,79.0,52.0,29.85,North,353,14.0,15.0,39,0.00,,,0.00,,2013-09-08 21:22:00,
2013-09-08 17:34:00,79.0,52.0,29.85,North,353,14.0,15.0,39,0.00,,,0.00,,2013-09-08 21:34:00,
2013-09-08 17:54:00,78.0,50.0,29.87,North,352,9.0,16.0,37,0.00,,,0.00,,2013-09-08 21:54:00,
2013-09-08 18:25:00,77.0,43.0,29.89,NNW,340,4.0,12.0,30,0.00,,,0.00,,2013-09-08 22:25:00,
2013-09-08 18:53:00,76.0,44.0,29.90,NNW,328,6.0,13.0,32,0.00,,,0.00,,2013-09-08 22:53:00,
2013-09-08 19:12:00,75.0,41.0,29.91,North,8,14.0,14.0,30,0.00,,,0.00,,2013-09-08 23:12:00,
2013-09-08 19:22:00,75.0,41.0,29.91,North,8,14.0,14.0,30,0.00,,,0.00,,2013-09-08 23:22:00,
2013-09-08 19:53:00,73.0,42.0,29.93,NNW,341,10.0,10.0,33,0.00,,,0.00,,2013-09-08 23:53:00,
2013-09-08 20:02:00,73.0,42.0,29.93,NNW,341,10.0,10.0,33,0.00,,,0.00,,2013-09-09 00:02:00,
2013-09-08 20:11:00,73.0,42.0,29.93,NNW,341,10.0,10.0,33,0.00,,,0.00,,2013-09-09 00:11:00,
2013-09-08 20:22:00,72.0,43.0,29.95,NNW,347,5.0,9.0,35,0.00,,,0.00,,2013-09-09 00:22:00,
2013-09-08 20:52:00,70.0,41.0,29.97,North,0,6.0,12.0,35,0.00,,,0.00,,2013-09-09 00:52:00,
2013-09-08 21:01:00,70.0,41.0,29.97,North,0,6.0,12.0,35,0.00,,,0.00,,2013-09-09 01:01:00,
2013-09-08 21:21:00,69.0,43.0,29.99,NNW,335,6.0,9.0,39,0.00,,,0.00,,2013-09-09 01:21:00,
2013-09-08 21:32:00,69.0,43.0,29.99,NNW,335,6.0,9.0,39,0.00,,,0.00,,2013-09-09 01:32:00,
2013-09-08 21:52:00,69.0,43.0,29.99,NNW,335,6.0,9.0,39,0.00,,,0.00,,2013-09-09 01:52:00,
2013-09-08 22:22:00,67.0,44.0,30.02,North,1,10.0,10.0,43,0.00,,,0.00,,2013-09-09 02:22:00,
2013-09-08 22:52:00,66.0,43.0,30.03,NNW,340,3.0,7.0,44,0.00,,,0.00,,2013-09-09 02:52:00,
2013-09-08 23:03:00,66.0,43.0,30.03,NNW,340,3.0,7.0,44,0.00,,,0.00,,2013-09-09 03:03:00,
2013-09-08 23:22:00,65.0,44.0,30.04,North,359,9.0,9.0,47,0.00,,,0.00,,2013-09-09 03:22:00,
2013-09-08 23:34:00,65.0,44.0,30.04,North,359,9.0,9.0,47,0.00,,,0.00,,2013-09-09 03:34:00,
2013-09-08 23:55:00,64.0,44.0,30.05,NE,37,5.0,9.0,49,0.00,,,0.00,,2013-09-09 03:55:00,